Time;durP1;ratioP1;P1;durP2;ratioP2;P2;SDS_P1;SDS_P2;PMS_P1;PMS_P2;Temp;Humidity;BMP_temperature;BMP_pressure;BME280_temperature;BME280_humidity;BME280_pressure;Samples;Min_cycle;Max_cycle;Signal;HPM_P1;HPM_P2
2022/03/07 00:00:39;;;;;;;2.60;2.17;;;2.60;40.30;1.70;98785.00;;;;5115380;28;20530;-74
2022/03/07 00:03:06;;;;;;;2.87;2.37;;;2.60;40.30;1.70;98783.00;;;;5114950;28;20313;-74
2022/03/07 00:05:34;;;;;;;1.57;1.27;;;2.60;40.50;1.70;98785.00;;;;5115045;28;20568;-74
2022/03/07 00:08:00;;;;;;;1.53;1.43;;;2.50;40.50;1.70;98791.00;;;;5114931;28;20224;-75
2022/03/07 00:10:27;;;;;;;3.07;2.33;;;2.50;40.80;1.70;98787.00;;;;5114875;28;20236;-74
2022/03/07 00:12:54;;;;;;;1.20;1.20;;;2.60;41.70;1.80;98794.00;;;;5114902;28;20209;-75
2022/03/07 00:15:22;;;;;;;1.50;1.40;;;2.60;41.60;1.60;98794.00;;;;5114733;28;20591;-75
2022/03/07 00:17:51;;;;;;;1.60;1.50;;;2.50;41.30;1.60;98800.00;;;;5114780;28;20205;-75
2022/03/07 00:20:20;;;;;;;1.20;1.20;;;2.50;41.20;1.70;98793.00;;;;5114659;28;20220;-74
2022/03/07 00:22:47;;;;;;;2.47;2.17;;;2.50;41.50;1.60;98799.00;;;;5114862;28;20522;-74
2022/03/07 00:25:14;;;;;;;1.10;1.10;;;2.50;41.90;1.80;98801.00;;;;5114551;28;20288;-74
2022/03/07 00:27:41;;;;;;;2.03;1.93;;;2.60;41.60;1.80;98793.00;;;;5114749;28;20221;-74
2022/03/07 00:30:09;;;;;;;0.97;0.97;;;2.60;41.00;1.80;98796.00;;;;5114660;28;20320;-74
2022/03/07 00:32:35;;;;;;;1.40;1.27;;;2.60;41.10;1.80;98796.00;;;;5114528;28;20267;-74
2022/03/07 00:35:05;;;;;;;1.23;1.23;;;2.60;41.50;1.70;98799.00;;;;5114668;28;20506;-74
2022/03/07 00:37:35;;;;;;;2.70;1.63;;;2.50;41.60;1.60;98792.00;;;;5114389;28;20300;-74
2022/03/07 00:40:02;;;;;;;1.87;1.77;;;2.50;41.90;1.60;98795.00;;;;5114604;28;20192;-74
2022/03/07 00:42:29;;;;;;;2.50;2.30;;;2.50;42.80;1.50;98798.00;;;;5114345;28;20305;-74
2022/03/07 00:44:55;;;;;;;1.27;1.27;;;2.50;42.10;1.70;98797.00;;;;5114329;28;20202;-73
2022/03/07 00:47:21;;;;;;;1.10;1.10;;;2.50;42.10;1.50;98805.00;;;;5096468;28;20200;-74
2022/03/07 00:49:48;;;;;;;1.90;1.63;;;2.40;41.90;1.50;98799.00;;;;5114435;28;20193;-74
2022/03/07 00:52:15;;;;;;;1.27;1.27;;;2.40;42.20;1.30;98796.00;;;;5114288;28;20204;-74
2022/03/07 00:54:42;;;;;;;1.77;1.63;;;2.30;42.50;1.10;98800.00;;;;5114143;28;20525;-74
2022/03/07 00:57:08;;;;;;;1.27;1.23;;;2.10;43.10;1.30;98797.00;;;;5114368;28;20197;-74
2022/03/07 00:59:35;;;;;;;1.63;1.53;;;2.20;43.50;1.40;98797.00;;;;5114124;28;20313;-74
2022/03/07 01:02:02;;;;;;;1.93;1.83;;;2.30;43.20;1.40;98795.00;;;;5114228;28;20315;-74
2022/03/07 01:04:28;;;;;;;1.37;1.27;;;2.30;43.00;1.30;98801.00;;;;5113982;28;20285;-74
2022/03/07 01:06:55;;;;;;;1.00;1.00;;;2.20;42.70;1.30;98791.00;;;;5114132;28;20276;-74
2022/03/07 01:09:23;;;;;;;3.03;1.90;;;2.20;42.60;1.40;98792.00;;;;5117274;28;20659;-73
2022/03/07 01:11:53;;;;;;;1.97;1.80;;;2.20;42.40;1.30;98800.00;;;;5116757;28;20550;-75
2022/03/07 01:14:19;;;;;;;1.30;1.20;;;2.10;42.60;1.30;98793.00;;;;5117753;28;20204;-74
2022/03/07 01:16:46;;;;;;;6.23;1.73;;;2.20;42.60;1.20;98797.00;;;;5117501;28;20224;-74
2022/03/07 01:19:13;;;;;;;1.37;1.27;;;2.10;42.90;1.10;98795.00;;;;5117777;28;20275;-74
2022/03/07 01:21:42;;;;;;;4.23;2.47;;;2.10;42.40;1.30;98793.00;;;;5099691;28;20231;-75
2022/03/07 01:24:08;;;;;;;1.17;1.10;;;2.10;42.70;1.20;98785.00;;;;5117760;28;20278;-75
2022/03/07 01:26:36;;;;;;;0.90;0.90;;;2.10;41.90;1.10;98792.00;;;;5117419;28;20225;-74
2022/03/07 01:29:03;;;;;;;0.90;0.90;;;2.00;41.80;1.10;98783.00;;;;5117434;28;20220;-75
2022/03/07 01:31:30;;;;;;;1.67;1.57;;;2.00;42.20;1.10;98792.00;;;;5117377;28;20228;-74
2022/03/07 01:33:56;;;;;;;1.47;1.37;;;2.00;42.20;1.00;98778.00;;;;5117413;28;20260;-74
2022/03/07 01:36:26;;;;;;;1.37;1.33;;;1.90;42.50;1.00;98781.00;;;;5117334;28;20697;-75
2022/03/07 01:38:54;;;;;;;1.70;1.20;;;1.90;42.60;1.00;98776.00;;;;5117105;28;20232;-74
2022/03/07 01:41:21;;;;;;;1.03;1.03;;;1.90;43.00;0.90;98743.00;;;;5099255;28;20294;-75
2022/03/07 01:43:50;;;;;;;1.67;1.57;;;1.90;42.80;0.80;98795.00;;;;5117078;28;20648;-74
2022/03/07 01:46:17;;;;;;;0.77;0.77;;;1.70;43.80;0.90;98791.00;;;;5117198;28;20226;-73
2022/03/07 01:48:43;;;;;;;8.27;1.93;;;1.80;43.10;0.90;98783.00;;;;5099090;28;20234;-74
2022/03/07 01:51:14;;;;;;;1.17;1.17;;;1.70;43.50;0.90;98769.00;;;;5099263;28;20214;-74
2022/03/07 01:53:41;;;;;;;1.20;1.20;;;1.80;44.10;0.90;98777.00;;;;5117215;28;20228;-74
2022/03/07 01:56:08;;;;;;;4.00;1.93;;;1.80;43.30;0.80;98770.00;;;;5116827;28;20317;-74
2022/03/07 01:58:35;;;;;;;1.73;1.63;;;1.70;43.60;0.80;98761.00;;;;5116928;28;20183;-74
2022/03/07 02:01:02;;;;;;;1.97;1.87;;;1.70;43.80;0.80;98769.00;;;;5117109;28;20247;-74
2022/03/07 02:03:30;;;;;;;2.93;1.77;;;1.70;43.80;0.70;98766.00;;;;5116989;28;20195;-74
2022/03/07 02:05:57;;;;;;;1.07;1.07;;;1.60;44.00;0.50;98766.00;;;;5116659;28;20217;-74
2022/03/07 02:08:26;;;;;;;1.47;1.40;;;1.60;43.70;0.60;98756.00;;;;5116859;28;20586;-75
2022/03/07 02:10:53;;;;;;;1.40;1.30;;;1.50;43.30;0.50;98764.00;;;;5117117;28;20596;-74
2022/03/07 02:13:21;;;;;;;2.13;1.70;;;1.50;43.30;0.50;98766.00;;;;5116864;28;20542;-74
2022/03/07 02:15:54;;;;;;;1.67;1.40;;;1.40;43.20;0.20;98760.00;;;;5116852;28;20241;-74
2022/03/07 02:18:21;;;;;;;1.00;1.00;;;1.30;43.10;0.30;98760.00;;;;5116610;28;20658;-75
2022/03/07 02:20:56;;;;;;;0.93;0.93;;;1.20;43.50;0.20;98752.00;;;;5115704;28;20215;-74
2022/03/07 02:23:23;;;;;;;1.77;1.67;;;1.20;43.50;-0.10;98764.00;;;;5098548;28;20218;-74
2022/03/07 02:25:50;;;;;;;2.17;1.97;;;1.10;43.50;0.00;98747.00;;;;5116467;28;20222;-74
2022/03/07 02:28:17;;;;;;;1.43;1.40;;;1.00;44.00;0.00;98738.00;;;;5116256;28;20219;-74
2022/03/07 02:30:43;;;;;;;1.10;1.10;;;1.00;43.40;0.00;98755.00;;;;5116483;28;20358;-75
2022/03/07 02:33:12;;;;;;;1.07;1.07;;;1.00;43.70;-0.20;98748.00;;;;5116453;28;20194;-74
2022/03/07 02:35:39;;;;;;;1.10;1.10;;;0.90;44.00;-0.20;98755.00;;;;5116280;28;20218;-75
2022/03/07 02:38:13;;;;;;;1.37;1.37;;;0.80;44.30;-0.30;98730.00;;;;5116452;28;20230;-75
2022/03/07 02:40:41;;;;;;;1.50;1.50;;;0.70;44.40;-0.50;98739.00;;;;5116358;28;20223;-74
2022/03/07 02:43:08;;;;;;;1.13;1.13;;;0.60;44.70;-0.40;98753.00;;;;5116417;28;20216;-75
2022/03/07 02:45:34;;;;;;;1.33;1.23;;;0.60;44.70;-0.50;98744.00;;;;5116177;28;20662;-74
2022/03/07 02:48:01;;;;;;;1.73;1.63;;;0.50;44.90;-0.40;98750.00;;;;5116105;28;20218;-74
2022/03/07 02:50:30;;;;;;;1.00;1.00;;;0.50;44.90;-0.60;98749.00;;;;5116428;28;20205;-76
2022/03/07 02:52:56;;;;;;;1.70;1.60;;;0.50;44.80;-0.50;98741.00;;;;5116171;28;20197;-75
2022/03/07 02:55:23;;;;;;;1.30;1.30;;;0.50;45.50;-0.50;98747.00;;;;5116270;28;20201;-75
2022/03/07 02:57:50;;;;;;;1.33;1.30;;;0.50;45.10;-0.70;98750.00;;;;5116166;28;20221;-74
2022/03/07 03:00:18;;;;;;;2.10;1.53;;;0.40;45.30;-0.60;98751.00;;;;5116205;28;20239;-74
2022/03/07 03:02:44;;;;;;;1.47;1.37;;;0.40;45.60;-0.60;98762.00;;;;5115876;28;20229;-74
2022/03/07 03:05:11;;;;;;;1.00;1.00;;;0.30;45.60;-0.70;98758.00;;;;5115943;28;20202;-74
2022/03/07 03:07:38;;;;;;;0.77;0.77;;;0.30;45.60;-0.70;98754.00;;;;5115617;28;20621;-74
2022/03/07 03:10:06;;;;;;;0.93;0.93;;;0.30;45.60;-0.90;98753.00;;;;5115885;28;20216;-75
2022/03/07 03:12:33;;;;;;;1.57;1.47;;;0.20;45.50;-1.00;98751.00;;;;5115795;28;20195;-75
2022/03/07 03:15:00;;;;;;;1.03;1.03;;;0.10;45.60;-1.00;98759.00;;;;5115672;28;20225;-73
2022/03/07 03:17:26;;;;;;;1.60;1.50;;;0.00;45.90;-1.00;98723.00;;;;5115850;28;20201;-74
2022/03/07 03:19:53;;;;;;;2.07;1.10;;;-0.10;46.10;-1.00;98756.00;;;;5115620;28;20292;-75
2022/03/07 03:22:20;;;;;;;2.17;1.57;;;-0.10;46.00;-1.20;98747.00;;;;5115760;28;20221;-75
2022/03/07 03:24:47;;;;;;;1.37;1.27;;;-0.20;46.40;-1.30;98759.00;;;;5115625;28;20278;-75
2022/03/07 03:27:13;;;;;;;1.47;1.43;;;-0.30;46.80;-1.40;98752.00;;;;5115609;28;20386;-75
2022/03/07 03:29:40;;;;;;;1.67;1.57;;;-0.30;46.90;-1.40;98762.00;;;;5115481;28;20224;-74
2022/03/07 03:32:09;;;;;;;1.17;1.17;;;-0.40;47.20;-1.60;98768.00;;;;5115393;28;20526;-75
2022/03/07 03:34:36;;;;;;;1.27;1.20;;;-0.50;47.30;-1.60;98770.00;;;;5115572;28;20221;-75
2022/03/07 03:37:03;;;;;;;1.67;1.57;;;-0.60;47.80;-1.60;98768.00;;;;5115315;28;20236;-75
2022/03/07 03:39:29;;;;;;;1.70;1.60;;;-0.60;47.90;-1.60;98764.00;;;;5115503;28;20528;-75
2022/03/07 03:41:56;;;;;;;1.20;1.20;;;-0.60;48.10;-1.40;98758.00;;;;5115290;28;20308;-75
2022/03/07 03:44:22;;;;;;;11.70;2.07;;;-0.50;48.50;-1.50;98767.00;;;;5115386;28;20185;-75
2022/03/07 03:46:49;;;;;;;1.40;1.40;;;-0.50;48.40;-1.60;98776.00;;;;5115255;28;20201;-73
2022/03/07 03:49:16;;;;;;;1.77;1.27;;;-0.50;48.70;-1.60;98766.00;;;;5115251;28;20625;-75
2022/03/07 03:51:43;;;;;;;2.13;1.97;;;-0.50;49.80;-1.60;98773.00;;;;5115155;28;20213;-75
2022/03/07 03:54:09;;;;;;;12.33;1.23;;;-0.50;48.90;-1.40;98766.00;;;;5115271;28;20204;-75
2022/03/07 03:56:38;;;;;;;1.10;1.10;;;-0.50;49.30;-1.30;98765.00;;;;5097254;28;20217;-74
2022/03/07 03:59:04;;;;;;;1.30;1.20;;;-0.40;48.90;-1.40;98768.00;;;;5115002;28;20248;-74
2022/03/07 04:01:31;;;;;;;1.13;1.13;;;-0.40;49.00;-1.30;98765.00;;;;5115186;28;20245;-74
2022/03/07 04:03:58;;;;;;;1.13;1.13;;;-0.40;49.20;-1.30;98773.00;;;;5115028;28;20245;-74
2022/03/07 04:06:25;;;;;;;1.43;1.33;;;-0.40;49.30;-1.30;98780.00;;;;5115055;28;20300;-74
2022/03/07 04:09:06;;;;;;;1.63;1.53;;;-0.40;49.10;-1.30;98782.00;;;;5114921;28;20221;-74
2022/03/07 04:11:33;;;;;;;4.90;2.57;;;-0.40;49.10;-1.40;98772.00;;;;5114482;28;20578;-74
2022/03/07 04:14:02;;;;;;;2.67;2.23;;;-0.30;49.00;-1.30;98770.00;;;;5114789;28;20237;-74
2022/03/07 04:16:29;;;;;;;0.93;0.93;;;-0.40;49.00;-1.40;98772.00;;;;5096849;28;20226;-74
2022/03/07 04:18:55;;;;;;;1.80;1.33;;;-0.40;49.30;-1.40;98766.00;;;;5114741;28;20289;-74
2022/03/07 04:21:22;;;;;;;1.43;1.33;;;-0.40;49.40;-1.40;98773.00;;;;5114773;28;20307;-73
2022/03/07 04:23:49;;;;;;;3.83;1.77;;;-0.40;49.50;-1.30;98770.00;;;;5114846;28;20202;-75
2022/03/07 04:26:18;;;;;;;1.87;1.77;;;-0.40;49.80;-1.40;98770.00;;;;5114644;28;20226;-74
2022/03/07 04:28:44;;;;;;;1.60;1.50;;;-0.40;49.90;-1.40;98772.00;;;;5114648;28;20248;-74
2022/03/07 04:31:11;;;;;;;2.10;2.00;;;-0.50;49.70;-1.40;98772.00;;;;5096724;28;20209;-74
2022/03/07 04:33:38;;;;;;;1.33;1.33;;;-0.50;50.10;-1.40;98779.00;;;;5114585;28;20221;-74
2022/03/07 04:36:07;;;;;;;2.10;1.57;;;-0.40;49.60;-1.40;98770.00;;;;5114517;28;20190;-74
2022/03/07 04:38:34;;;;;;;1.53;1.43;;;-0.50;49.40;-1.30;98774.00;;;;5114599;28;20366;-73
2022/03/07 04:41:03;;;;;;;1.03;1.03;;;-0.40;49.40;-1.30;98775.00;;;;5114465;28;20217;-74
2022/03/07 04:43:30;;;;;;;2.03;1.83;;;-0.40;49.10;-1.40;98782.00;;;;5113914;28;20300;-74
2022/03/07 04:45:58;;;;;;;1.10;1.10;;;-0.40;48.90;-1.30;98786.00;;;;5114625;28;20216;-74
2022/03/07 04:48:25;;;;;;;1.90;1.80;;;-0.40;48.70;-1.40;98779.00;;;;5114291;28;20300;-74
2022/03/07 04:50:52;;;;;;;1.77;1.67;;;-0.50;48.80;-1.40;98802.00;;;;5114418;28;20202;-74
2022/03/07 04:53:19;;;;;;;2.47;1.80;;;-0.50;48.90;-1.60;98777.00;;;;5114472;28;20253;-74
2022/03/07 04:55:45;;;;;;;1.30;1.30;;;-0.50;48.90;-1.60;98791.00;;;;5114405;28;20372;-74
2022/03/07 04:58:13;;;;;;;2.60;1.67;;;-0.60;49.00;-1.80;98792.00;;;;5114380;28;20605;-74
2022/03/07 05:00:40;;;;;;;1.70;1.60;;;-0.60;49.40;-1.80;98794.00;;;;5114210;28;20239;-75
2022/03/07 05:03:06;;;;;;;2.00;1.83;;;-0.70;49.70;-1.90;98803.00;;;;5114257;28;20202;-75
2022/03/07 05:05:33;;;;;;;1.17;1.17;;;-0.80;49.90;-1.90;98783.00;;;;5114459;28;20255;-74
2022/03/07 05:08:03;;;;;;;2.33;1.77;;;-0.80;50.20;-1.90;98804.00;;;;5114773;28;20751;-74
2022/03/07 05:10:29;;;;;;;2.00;1.63;;;-0.80;50.80;-1.90;98794.00;;;;5115422;28;20263;-74
2022/03/07 05:12:56;;;;;;;1.40;1.30;;;-0.80;51.30;-1.80;98795.00;;;;5097288;28;20701;-74
2022/03/07 05:15:23;;;;;;;1.10;1.10;;;-0.80;51.90;-1.80;98802.00;;;;5117902;28;20345;-74
2022/03/07 05:17:53;;;;;;;1.80;1.70;;;-0.70;52.20;-1.60;98800.00;;;;5098066;28;20345;-74
2022/03/07 05:20:21;;;;;;;1.20;1.20;;;-0.60;52.70;-1.60;98796.00;;;;5114759;28;20198;-74
2022/03/07 05:22:49;;;;;;;1.53;1.43;;;-0.60;52.50;-1.60;98800.00;;;;5114353;28;20314;-74
2022/03/07 05:25:19;;;;;;;1.17;1.17;;;-0.50;53.00;-1.50;98811.00;;;;5114476;28;20710;-73
2022/03/07 05:27:46;;;;;;;1.30;1.20;;;-0.60;52.90;-1.60;98819.00;;;;5113937;28;20251;-74
2022/03/07 05:30:18;;;;;;;1.63;1.17;;;-0.60;53.10;-1.60;98803.00;;;;5114142;28;20198;-74
2022/03/07 05:32:47;;;;;;;1.10;1.10;;;-0.60;53.60;-1.70;98810.00;;;;5096106;28;20295;-75
2022/03/07 05:35:15;;;;;;;0.80;0.80;;;-0.60;53.90;-1.70;98811.00;;;;5096428;28;20684;-75
2022/03/07 05:37:41;;;;;;;1.50;1.50;;;-0.60;54.20;-1.70;98812.00;;;;5114788;28;20328;-74
2022/03/07 05:40:13;;;;;;;2.73;1.47;;;-0.60;54.20;-1.60;98815.00;;;;5114771;28;20222;-74
2022/03/07 05:42:40;;;;;;;1.33;1.33;;;-0.60;53.90;-1.60;98817.00;;;;5114773;28;20206;-74
2022/03/07 05:45:13;;;;;;;1.33;1.27;;;-0.60;53.90;-1.60;98817.00;;;;5115909;28;20217;-74
2022/03/07 05:47:40;;;;;;;1.53;1.27;;;-0.60;53.60;-1.70;98830.00;;;;5105027;28;20229;-73
2022/03/07 05:50:09;;;;;;;1.00;1.00;;;-0.70;54.40;-1.60;98794.00;;;;5114664;28;20610;-73
2022/03/07 05:52:38;;;;;;;1.97;1.77;;;-0.70;53.90;-1.70;98821.00;;;;5113541;28;20223;-73
2022/03/07 05:55:07;;;;;;;2.63;1.93;;;-0.70;53.60;-1.60;98821.00;;;;5114896;28;20203;-74
2022/03/07 05:57:34;;;;;;;1.90;1.70;;;-0.70;53.80;-1.70;98812.00;;;;5117044;28;20273;-74
2022/03/07 06:00:02;;;;;;;1.87;1.77;;;-0.70;53.80;-1.70;98811.00;;;;5116973;28;20208;-73
2022/03/07 06:02:29;;;;;;;1.43;1.37;;;-0.70;53.80;-1.70;98823.00;;;;5116766;28;20668;-74
2022/03/07 06:04:55;;;;;;;0.80;0.80;;;-0.70;54.00;-1.60;98825.00;;;;5116949;28;20198;-74
2022/03/07 06:07:22;;;;;;;1.27;1.20;;;-0.70;54.10;-1.70;98833.00;;;;5116765;28;20302;-74
2022/03/07 06:09:49;;;;;;;2.10;1.70;;;-0.70;53.90;-1.60;98835.00;;;;5116859;28;20229;-74
2022/03/07 06:12:15;;;;;;;1.73;1.63;;;-0.70;54.40;-1.70;98836.00;;;;5116798;28;20202;-74
2022/03/07 06:14:42;;;;;;;1.97;1.50;;;-0.70;54.70;-1.40;98834.00;;;;5116739;28;20232;-75
2022/03/07 06:17:11;;;;;;;1.87;1.77;;;-0.60;55.00;-1.50;98825.00;;;;5116593;28;20208;-72
2022/03/07 06:19:38;;;;;;;3.17;1.60;;;-0.50;55.10;-1.50;98838.00;;;;5116610;28;20214;-74
2022/03/07 06:22:04;;;;;;;2.53;1.63;;;-0.50;54.40;-1.40;98827.00;;;;5116630;28;20210;-73
2022/03/07 06:24:34;;;;;;;0.90;0.90;;;-0.50;54.50;-1.50;98836.00;;;;5116541;28;20214;-73
2022/03/07 06:27:01;;;;;;;1.57;1.47;;;-0.50;54.50;-1.30;98842.00;;;;5098615;28;20228;-74
2022/03/07 06:29:28;;;;;;;1.33;1.33;;;-0.40;54.20;-1.30;98822.00;;;;5116391;28;20281;-72
2022/03/07 06:31:55;;;;;;;2.97;2.20;;;-0.40;54.20;-1.40;98831.00;;;;5116668;28;20575;-74
2022/03/07 06:34:22;;;;;;;6.37;2.63;;;-0.40;54.10;-1.60;98826.00;;;;5116428;28;20202;-74
2022/03/07 06:36:51;;;;;;;0.80;0.80;;;-0.50;54.20;-1.50;98830.00;;;;5116373;28;20197;-74
2022/03/07 06:39:25;;;;;;;0.90;0.90;;;-0.50;54.20;-1.70;98834.00;;;;5116357;28;20293;-73
2022/03/07 06:41:53;;;;;;;1.10;1.10;;;-0.60;54.40;-1.50;98826.00;;;;5116305;28;20217;-73
2022/03/07 06:44:22;;;;;;;1.63;1.53;;;-0.50;54.70;-1.60;98832.00;;;;5116298;28;20516;-74
2022/03/07 06:46:51;;;;;;;1.00;1.00;;;-0.50;54.70;-1.50;98830.00;;;;5116044;28;20224;-76
2022/03/07 06:49:18;;;;;;;0.97;0.97;;;-0.50;54.80;-1.40;98830.00;;;;5116137;28;20232;-75
2022/03/07 06:51:44;;;;;;;1.90;1.80;;;-0.40;54.70;-1.50;98824.00;;;;5116243;28;20198;-75
2022/03/07 06:54:11;;;;;;;1.27;1.17;;;-0.40;54.50;-1.50;98844.00;;;;5116148;28;20231;-75
2022/03/07 06:56:38;;;;;;;1.20;1.10;;;-0.50;54.70;-1.40;98830.00;;;;5116078;28;20625;-75
2022/03/07 06:59:07;;;;;;;1.77;1.67;;;-0.50;55.00;-1.30;98829.00;;;;5116086;28;20217;-75
2022/03/07 07:01:34;;;;;;;1.63;1.53;;;-0.40;55.00;-1.20;98831.00;;;;5116089;28;20209;-73
2022/03/07 07:04:01;;;;;;;1.03;1.03;;;-0.30;54.70;-1.10;98834.00;;;;5115925;28;20245;-75
2022/03/07 07:06:30;;;;;;;1.53;1.43;;;-0.20;54.50;-1.10;98840.00;;;;5115509;28;20259;-75
2022/03/07 07:08:57;;;;;;;1.40;1.30;;;-0.20;54.40;-1.30;98856.00;;;;5115728;28;20222;-75
2022/03/07 07:11:23;;;;;;;1.00;1.00;;;-0.20;53.90;-1.10;98838.00;;;;5116003;28;20610;-75
2022/03/07 07:13:50;;;;;;;0.80;0.80;;;-0.20;54.00;-1.10;98836.00;;;;5116019;28;20289;-74
2022/03/07 07:16:20;;;;;;;1.80;1.70;;;-0.20;53.80;-1.00;98837.00;;;;5115726;28;20273;-75
2022/03/07 07:18:46;;;;;;;1.40;1.40;;;-0.10;53.90;-1.00;98852.00;;;;5115564;28;20229;-75
2022/03/07 07:21:13;;;;;;;1.17;1.07;;;-0.10;53.40;-0.90;98861.00;;;;5115592;28;20228;-75
2022/03/07 07:23:39;;;;;;;1.20;1.20;;;0.00;53.80;-0.70;98852.00;;;;5097934;28;20559;-73
2022/03/07 07:26:08;;;;;;;1.33;1.23;;;0.10;52.70;-0.70;98863.00;;;;5115622;28;20305;-74
2022/03/07 07:28:35;;;;;;;1.23;1.23;;;0.20;52.20;-0.60;98869.00;;;;5115507;28;20693;-73
2022/03/07 07:31:01;;;;;;;1.33;1.27;;;0.30;51.70;-0.60;98865.00;;;;5115598;28;20217;-73
2022/03/07 07:33:29;;;;;;;0.70;0.70;;;0.30;51.50;-0.50;98839.00;;;;5115511;28;20208;-73
2022/03/07 07:35:55;;;;;;;2.10;1.90;;;0.40;50.70;-0.30;98866.00;;;;5115549;28;20190;-73
2022/03/07 07:38:22;;;;;;;2.17;1.10;;;0.50;50.30;-0.20;98852.00;;;;5115487;28;20228;-73
2022/03/07 07:40:49;;;;;;;1.53;1.43;;;0.60;50.60;-0.10;98861.00;;;;5115511;28;20198;-73
2022/03/07 07:43:16;;;;;;;1.00;1.00;;;0.70;49.40;-0.40;98856.00;;;;5115600;28;20232;-75
2022/03/07 07:45:43;;;;;;;1.10;1.10;;;0.60;49.10;-0.30;98861.00;;;;5115534;28;20638;-76
2022/03/07 07:48:09;;;;;;;0.90;0.90;;;0.60;49.40;-0.30;98858.00;;;;5115316;28;20213;-74
2022/03/07 07:50:37;;;;;;;1.00;1.00;;;0.60;49.50;-0.40;98836.00;;;;5115374;28;20204;-74
2022/03/07 07:53:03;;;;;;;2.00;1.83;;;0.50;49.70;-0.30;98871.00;;;;5115234;28;20274;-77
2022/03/07 07:55:30;;;;;;;1.57;1.47;;;0.60;49.50;-0.30;98870.00;;;;5115194;28;20236;-75
2022/03/07 07:57:59;;;;;;;1.93;1.67;;;0.60;49.90;-0.20;98872.00;;;;5097333;28;20228;-74
2022/03/07 08:00:27;;;;;;;1.83;1.53;;;0.70;50.10;-0.20;98873.00;;;;5115125;28;20565;-74
2022/03/07 08:02:55;;;;;;;1.10;1.10;;;0.80;50.00;0.00;98889.00;;;;5115079;28;20202;-74
2022/03/07 08:05:22;;;;;;;1.40;1.30;;;0.90;49.50;0.20;98884.00;;;;5115058;28;20216;-73
2022/03/07 08:07:52;;;;;;;1.67;1.60;;;1.00;48.70;0.50;98885.00;;;;5115073;28;20283;-74
2022/03/07 08:10:19;;;;;;;1.30;1.30;;;1.20;48.00;0.40;98851.00;;;;5115033;28;20190;-74
2022/03/07 08:12:48;;;;;;;10.13;1.20;;;1.30;47.30;0.50;98883.00;;;;5115099;28;20207;-75
2022/03/07 08:15:16;;;;;;;1.17;1.17;;;1.40;47.20;0.50;98895.00;;;;5096990;28;20241;-75
2022/03/07 08:17:46;;;;;;;2.43;1.23;;;1.40;47.10;0.50;98891.00;;;;5113903;28;20222;-75
2022/03/07 08:20:13;;;;;;;1.47;1.43;;;1.40;46.70;0.80;98897.00;;;;5114768;28;20190;-74
2022/03/07 08:22:39;;;;;;;2.63;1.87;;;1.60;46.40;0.80;98888.00;;;;5114706;28;20216;-74
2022/03/07 08:25:08;;;;;;;1.10;1.10;;;1.60;45.80;0.80;98897.00;;;;5114936;28;20282;-75
2022/03/07 08:27:35;;;;;;;1.50;1.40;;;1.70;45.60;0.80;98892.00;;;;5096702;28;20221;-75
2022/03/07 08:30:07;;;;;;;0.90;0.90;;;1.70;45.70;0.90;98897.00;;;;5114461;28;20734;-75
2022/03/07 08:32:37;;;;;;;1.37;1.33;;;1.80;45.40;0.90;98890.00;;;;5114672;28;20190;-76
2022/03/07 08:35:06;;;;;;;2.87;1.13;;;1.80;44.70;1.10;98869.00;;;;5114631;28;20652;-76
2022/03/07 08:37:33;;;;;;;1.07;1.07;;;1.80;60.70;1.20;98901.00;;;;5114535;28;20286;-76
2022/03/07 08:39:59;;;;;;;1.50;1.40;;;2.00;44.20;1.30;98894.00;;;;5114580;28;20587;-76
2022/03/07 08:42:27;;;;;;;1.93;1.83;;;2.10;44.20;1.30;98898.00;;;;5114536;28;20214;-74
2022/03/07 08:44:56;;;;;;;2.30;2.20;;;2.20;42.80;1.30;98901.00;;;;5114457;28;20524;-74
2022/03/07 08:47:23;;;;;;;2.03;1.70;;;2.20;42.50;1.30;98898.00;;;;5096528;28;20199;-74
2022/03/07 08:49:52;;;;;;;1.50;1.50;;;;;1.60;98905.00;;;;5114245;28;20694;-75
2022/03/07 08:52:18;;;;;;;1.43;1.37;;;2.30;41.50;1.60;98901.00;;;;5114276;28;20248;-74
2022/03/07 08:54:46;;;;;;;1.80;1.53;;;2.50;40.50;1.70;98911.00;;;;5114254;28;20203;-75
2022/03/07 08:57:13;;;;;;;1.23;1.23;;;2.50;40.40;1.90;98909.00;;;;5114290;28;20211;-73
2022/03/07 08:59:41;;;;;;;1.40;1.37;;;2.70;40.00;1.80;98917.00;;;;5114378;28;20224;-74
2022/03/07 09:02:09;;;;;;;3.57;1.20;;;2.60;39.80;1.90;98909.00;;;;5114408;28;20519;-75
2022/03/07 09:04:36;;;;;;;1.20;1.13;;;2.70;39.60;1.80;98910.00;;;;5114161;28;20246;-73
2022/03/07 09:07:03;;;;;;;1.30;1.30;;;2.70;39.80;2.00;98908.00;;;;5114255;28;20567;-74
2022/03/07 09:09:30;;;;;;;1.03;1.03;;;2.80;39.90;2.10;98917.00;;;;5114225;28;20224;-74
2022/03/07 09:11:59;;;;;;;1.43;1.33;;;2.90;39.60;2.30;98920.00;;;;5114119;28;20517;-76
2022/03/07 09:14:26;;;;;;;2.63;1.87;;;3.10;39.80;2.60;98912.00;;;;5114029;28;20228;-75
2022/03/07 09:16:54;;;;;;;1.00;1.00;;;3.30;39.60;2.70;98910.00;;;;5114132;28;20223;-76
2022/03/07 09:19:20;;;;;;;0.97;0.97;;;3.40;39.10;2.90;98918.00;;;;5113926;28;20236;-74
2022/03/07 09:21:48;;;;;;;1.67;1.57;;;3.60;38.50;2.50;98918.00;;;;5114044;28;20216;-75
2022/03/07 09:24:15;;;;;;;0.90;0.90;;;3.40;38.10;2.50;98930.00;;;;5095969;28;20654;-74
2022/03/07 09:26:41;;;;;;;0.70;0.70;;;3.30;38.40;2.70;98917.00;;;;5113928;28;20618;-74
2022/03/07 09:29:10;;;;;;;1.00;1.00;;;3.50;38.40;2.90;98928.00;;;;5115228;28;20221;-74
2022/03/07 09:31:37;;;;;;;1.60;1.50;;;3.60;38.10;3.00;98920.00;;;;5117345;28;20223;-71
2022/03/07 09:34:04;;;;;;;1.30;1.30;;;3.80;37.80;3.20;98922.00;;;;5117494;28;20550;-75
2022/03/07 09:36:31;;;;;;;2.07;1.87;;;3.80;37.90;3.30;98929.00;;;;5117675;28;20348;-75
2022/03/07 09:38:57;;;;;;;1.27;1.23;;;4.10;37.50;3.30;98928.00;;;;5117362;28;20323;-76
2022/03/07 09:41:24;;;;;;;5.63;1.80;;;4.10;36.00;3.50;98920.00;;;;5117340;28;20240;-74
2022/03/07 09:43:51;;;;;;;2.37;2.03;;;4.20;36.10;3.70;98926.00;;;;5117214;28;20249;-75
2022/03/07 09:46:17;;;;;;;0.90;0.90;;;4.40;35.30;3.80;98929.00;;;;5117350;28;20198;-74
2022/03/07 09:48:44;;;;;;;6.60;1.80;;;4.50;35.50;3.60;98913.00;;;;5117173;28;20241;-74
2022/03/07 09:51:13;;;;;;;2.07;1.97;;;4.50;34.50;3.90;98938.00;;;;5117169;28;20280;-74
2022/03/07 09:53:40;;;;;;;1.20;1.20;;;4.60;34.80;4.10;98925.00;;;;5099228;28;20288;-74
2022/03/07 09:56:06;;;;;;;1.13;1.13;;;4.70;34.30;4.00;98926.00;;;;5117038;28;20228;-75
2022/03/07 09:58:35;;;;;;;1.40;1.40;;;4.70;34.60;3.90;98932.00;;;;5117034;28;20210;-74
2022/03/07 10:01:08;;;;;;;1.57;1.47;;;4.80;34.80;4.20;98925.00;;;;5117231;28;20284;-74
2022/03/07 10:03:34;;;;;;;1.00;1.00;;;4.80;34.20;4.30;98934.00;;;;5117102;28;20217;-76
2022/03/07 10:06:13;;;;;;;1.60;1.50;;;4.90;33.90;4.40;98899.00;;;;5098847;28;20214;-75
2022/03/07 10:08:51;;;;;;;1.67;1.57;;;5.10;33.40;4.30;98924.00;;;;5098783;28;20282;-75
2022/03/07 10:11:18;;;;;;;1.07;1.07;;;5.00;33.40;4.60;98927.00;;;;5116845;28;20201;-73
2022/03/07 10:13:53;;;;;;;1.20;1.10;;;5.20;33.50;4.40;98930.00;;;;5116809;28;20194;-73
2022/03/07 10:16:21;;;;;;;1.50;1.40;;;5.20;32.50;4.70;98934.00;;;;5099056;28;20229;-74
2022/03/07 10:18:52;;;;;;;1.67;1.57;;;5.30;32.60;4.70;98942.00;;;;5116907;28;20194;-74
2022/03/07 10:21:24;;;;;;;3.43;1.30;;;5.40;31.20;4.70;98935.00;;;;5116730;28;20189;-73
2022/03/07 10:23:53;;;;;;;1.53;1.50;;;5.40;31.20;4.70;98943.00;;;;5116827;28;20194;-74
2022/03/07 10:26:19;;;;;;;1.87;1.77;;;5.40;31.60;4.60;98932.00;;;;5116640;28;20205;-76
2022/03/07 10:28:56;;;;;;;1.33;1.23;;;5.40;31.50;4.60;98935.00;;;;5116464;28;20226;-76
2022/03/07 10:31:25;;;;;;;0.87;0.87;;;5.50;31.40;4.50;98941.00;;;;5116660;28;20540;-76
2022/03/07 10:34:02;;;;;;;1.00;1.00;;;5.40;31.60;4.30;98943.00;;;;5116395;28;20190;-75
2022/03/07 10:36:35;;;;;;;1.60;1.50;;;5.30;32.00;4.60;98931.00;;;;5116574;28;20218;-73
2022/03/07 10:39:04;;;;;;;1.87;1.77;;;5.30;31.90;4.50;98925.00;;;;5116519;28;20228;-75
2022/03/07 10:41:39;;;;;;;1.30;1.30;;;5.30;31.80;4.40;98936.00;;;;5115484;28;20312;-73
2022/03/07 10:44:10;;;;;;;1.97;1.37;;;5.20;31.80;4.50;98927.00;;;;5116405;28;20221;-75
2022/03/07 10:46:38;;;;;;;1.03;1.03;;;5.30;32.40;4.50;98924.00;;;;5116316;28;20225;-74
2022/03/07 10:49:07;;;;;;;0.67;0.67;;;5.30;32.10;5.00;98933.00;;;;5098327;28;20358;-75
2022/03/07 10:51:34;;;;;;;1.40;1.40;;;5.50;32.70;5.10;98927.00;;;;5116178;28;20210;-75
2022/03/07 10:54:12;;;;;;;0.90;0.90;;;5.70;31.90;5.30;98930.00;;;;5116031;28;20278;-74
2022/03/07 10:56:50;;;;;;;1.00;1.00;;;5.90;31.40;5.40;98920.00;;;;5098263;28;20194;-75
2022/03/07 10:59:27;;;;;;;1.83;1.77;;;6.00;30.80;5.20;98915.00;;;;5116086;28;20220;-74
2022/03/07 11:02:00;;;;;;;1.10;1.10;;;5.90;30.40;5.40;98930.00;;;;5116242;28;20197;-73
2022/03/07 11:04:27;;;;;;;1.40;1.30;;;6.00;30.30;5.50;98922.00;;;;5116181;28;20342;-76